createdAt,value
2022-09-10T00:01:18.716Z,56.18
2022-09-10T00:03:48.774Z,56.10
2022-09-10T00:06:19.458Z,56.17
2022-09-10T00:08:49.204Z,56.16
2022-09-10T00:11:17.566Z,55.97
2022-09-10T00:13:45.939Z,56.04
2022-09-10T00:16:15.400Z,56.13
2022-09-10T00:18:43.882Z,56.32
2022-09-10T00:21:14.647Z,55.91
2022-09-10T00:23:45.720Z,55.83
2022-09-10T00:26:17.228Z,56.26
2022-09-10T00:28:45.880Z,56.13
2022-09-10T00:31:14.756Z,55.88
2022-09-10T00:33:43.157Z,55.87
2022-09-10T00:36:16.397Z,56.18
2022-09-10T00:38:46.525Z,56.10
2022-09-10T00:41:16.098Z,55.60
2022-09-10T00:43:53.317Z,56.16
2022-09-10T00:46:27.325Z,56.07
2022-09-10T00:48:57.582Z,56.05
2022-09-10T00:51:30.063Z,56.08
2022-09-10T00:54:00.415Z,56.06
2022-09-10T00:56:29.548Z,55.82
2022-09-10T00:58:58.014Z,55.90
2022-09-10T01:01:26.665Z,56.02
2022-09-10T01:03:55.801Z,56.12
2022-09-10T01:06:25.038Z,56.18
2022-09-10T01:08:53.491Z,55.93
2022-09-10T01:11:43.883Z,56.20
2022-09-10T01:14:29.515Z,56.16
2022-09-10T01:17:05.019Z,56.06
2022-09-10T01:19:54.897Z,56.02
2022-09-10T01:22:32.516Z,56.18
2022-09-10T01:25:04.898Z,56.14
2022-09-10T01:27:41.350Z,55.83
2022-09-10T01:30:14.656Z,56.16
2022-09-10T01:32:59.163Z,56.20
2022-09-10T01:35:37.364Z,56.11
2022-09-10T01:38:09.381Z,56.00
2022-09-10T01:40:38.313Z,55.88
2022-09-10T01:43:13.002Z,56.10
2022-09-10T01:45:57.750Z,56.12
2022-09-10T01:48:42.871Z,56.19
2022-09-10T01:51:19.835Z,56.12
2022-09-10T01:54:02.645Z,55.88
2022-09-10T01:56:36.780Z,55.92
2022-09-10T01:59:15.269Z,56.10
2022-09-10T02:01:49.037Z,56.13
2022-09-10T02:04:19.062Z,56.10
2022-09-10T02:06:49.329Z,56.29
2022-09-10T02:09:19.939Z,56.01
2022-09-10T02:11:51.521Z,55.96
2022-09-10T02:14:36.637Z,55.92
2022-09-10T02:17:14.362Z,56.06
2022-09-10T02:19:43.856Z,55.91
2022-09-10T02:22:12.229Z,55.95
2022-09-10T02:24:40.659Z,56.00
2022-09-10T02:27:09.133Z,55.87
2022-09-10T02:29:39.637Z,55.86
2022-09-10T02:32:08.769Z,55.97
2022-09-10T02:34:37.723Z,56.33
2022-09-10T02:37:06.106Z,55.89
2022-09-10T02:39:36.757Z,55.93
2022-09-10T02:42:05.716Z,55.86
2022-09-10T02:44:34.078Z,56.00
2022-09-10T02:47:04.388Z,55.96
2022-09-10T02:49:34.631Z,55.77
2022-09-10T02:52:03.768Z,55.78
2022-09-10T02:54:32.559Z,55.92
2022-09-10T02:57:01.156Z,55.77
2022-09-10T02:59:30.900Z,55.84
2022-09-10T03:01:59.295Z,55.64
2022-09-10T03:04:29.014Z,55.86
2022-09-10T03:06:57.463Z,55.83
2022-09-10T03:09:28.963Z,55.73
2022-09-10T03:11:57.481Z,55.80
2022-09-10T03:14:25.891Z,55.79
2022-09-10T03:16:55.013Z,55.75
2022-09-10T03:19:26.760Z,55.87
2022-09-10T03:21:57.505Z,55.70
2022-09-10T03:24:26.260Z,55.86
2022-09-10T03:26:54.649Z,55.75
2022-09-10T03:29:24.336Z,55.79
2022-09-10T03:31:52.730Z,55.70
2022-09-10T03:34:22.553Z,55.81
2022-09-10T03:36:51.476Z,55.74
2022-09-10T03:39:21.965Z,56.05
2022-09-10T03:41:50.318Z,55.91
2022-09-10T03:44:18.741Z,55.68
2022-09-10T03:46:51.211Z,55.74
2022-09-10T03:49:20.191Z,55.75
2022-09-10T03:51:48.712Z,55.77
2022-09-10T03:54:18.247Z,55.89
2022-09-10T03:56:48.722Z,55.70
2022-09-10T03:59:17.665Z,55.65
2022-09-10T04:02:02.660Z,55.77
2022-09-10T04:04:34.336Z,55.55
2022-09-10T04:07:12.929Z,55.78
2022-09-10T04:09:54.879Z,55.70
2022-09-10T04:12:49.810Z,55.78
2022-09-10T04:15:31.388Z,55.54
2022-09-10T04:18:26.097Z,55.78
2022-09-10T04:21:08.799Z,55.42
2022-09-10T04:23:53.510Z,55.77
2022-09-10T04:26:37.075Z,55.59
2022-09-10T04:29:13.684Z,55.49
2022-09-10T04:31:43.126Z,55.50
2022-09-10T04:34:14.474Z,55.51
2022-09-10T04:36:50.557Z,55.06
2022-09-10T04:39:19.968Z,55.46
2022-09-10T04:41:51.097Z,55.54
2022-09-10T04:44:20.837Z,55.55
2022-09-10T04:46:51.836Z,55.74
2022-09-10T04:49:20.262Z,55.67
2022-09-10T04:51:50.177Z,55.70
2022-09-10T04:54:20.093Z,55.87
2022-09-10T04:56:48.514Z,55.75
2022-09-10T04:59:17.355Z,56.02
2022-09-10T05:01:50.600Z,55.88
2022-09-10T05:04:19.826Z,55.69
2022-09-10T05:06:50.342Z,55.79
2022-09-10T05:09:19.075Z,55.85
2022-09-10T05:11:48.100Z,55.87
2022-09-10T05:14:17.377Z,55.99
2022-09-10T05:16:52.900Z,55.96
2022-09-10T05:19:34.266Z,55.94
2022-09-10T05:22:07.425Z,55.87
2022-09-10T05:24:36.126Z,55.79
2022-09-10T05:27:06.621Z,55.89
2022-09-10T05:29:35.625Z,55.89
2022-09-10T05:32:04.202Z,55.67
2022-09-10T05:34:33.999Z,55.93
2022-09-10T05:37:02.384Z,55.96
2022-09-10T05:39:39.742Z,55.83
2022-09-10T05:42:10.549Z,56.02
2022-09-10T05:44:40.357Z,56.39
2022-09-10T05:47:08.774Z,56.07
2022-09-10T05:49:38.548Z,56.11
2022-09-10T05:52:06.996Z,56.19
2022-09-10T05:54:36.872Z,56.30
2022-09-10T05:57:05.935Z,56.09
2022-09-10T05:59:36.361Z,56.32
2022-09-10T06:02:36.181Z,56.33
2022-09-10T06:05:06.674Z,56.62
2022-09-10T06:07:49.378Z,56.40
2022-09-10T06:10:25.948Z,56.08
2022-09-10T06:12:55.057Z,56.33
2022-09-10T06:15:23.625Z,56.48
2022-09-10T06:17:55.798Z,56.57
2022-09-10T06:20:26.478Z,56.39
2022-09-10T06:22:55.427Z,56.61
2022-09-10T06:25:38.690Z,56.38
2022-09-10T06:28:18.014Z,56.40
2022-09-10T06:30:49.191Z,56.43
2022-09-10T06:33:17.673Z,56.47
2022-09-10T06:35:53.839Z,56.48
2022-09-10T06:38:23.712Z,56.54
2022-09-10T06:40:54.557Z,56.53
2022-09-10T06:43:26.023Z,56.51
2022-09-10T06:46:05.512Z,56.50
2022-09-10T06:48:48.664Z,56.90
2022-09-10T06:51:20.676Z,56.44
2022-09-10T06:53:50.486Z,56.56
2022-09-10T06:56:21.610Z,56.59
2022-09-10T06:58:51.037Z,56.67
2022-09-10T07:01:21.651Z,56.70
2022-09-10T07:03:57.757Z,56.68
2022-09-10T07:06:31.935Z,56.87
2022-09-10T07:09:05.948Z,56.88
2022-09-10T07:11:41.500Z,56.91
2022-09-10T07:17:43.037Z,56.85
2022-09-10T07:20:28.486Z,56.80
2022-09-10T07:22:59.666Z,57.17
2022-09-10T07:25:31.057Z,56.88
2022-09-10T07:28:13.077Z,57.16
2022-09-10T07:30:45.110Z,57.04
2022-09-10T07:33:15.367Z,57.32
2022-09-10T07:35:45.727Z,56.98
2022-09-10T07:38:25.511Z,57.11
2022-09-10T07:41:17.806Z,56.86
2022-09-10T07:43:53.793Z,57.35
2022-09-10T07:46:25.547Z,57.35
2022-09-10T07:48:55.645Z,57.14
2022-09-10T07:51:24.880Z,57.15
2022-09-10T07:53:56.487Z,57.13
2022-09-10T07:56:32.376Z,57.14
2022-09-10T07:59:02.623Z,57.40
2022-09-10T08:01:37.033Z,57.08
2022-09-10T08:04:07.298Z,57.12
2022-09-10T08:06:39.026Z,57.11
2022-09-10T08:09:09.029Z,57.33
2022-09-10T08:11:42.576Z,57.34
2022-09-10T08:14:21.810Z,57.32
2022-09-10T08:16:53.587Z,57.30
2022-09-10T08:19:23.192Z,57.22
2022-09-10T08:21:53.120Z,56.96
2022-09-10T08:24:30.874Z,57.32
2022-09-10T08:26:59.555Z,57.39
2022-09-10T08:29:28.785Z,57.50
2022-09-10T08:31:59.395Z,57.36
2022-09-10T08:34:32.048Z,57.43
2022-09-10T08:37:08.804Z,57.41
2022-09-10T08:39:40.283Z,57.43
2022-09-10T08:42:15.678Z,57.41
2022-09-10T08:44:50.135Z,58.00
2022-09-10T08:47:33.282Z,58.12
2022-09-10T08:50:11.104Z,57.67
2022-09-10T08:52:42.623Z,57.88
2022-09-10T08:55:25.008Z,57.86
2022-09-10T08:57:55.441Z,57.76
2022-09-10T09:00:25.551Z,57.80
2022-09-10T09:02:59.323Z,57.46
2022-09-10T09:05:28.209Z,57.60
2022-09-10T09:07:59.568Z,57.49
2022-09-10T09:10:40.222Z,57.42
2022-09-10T09:13:29.859Z,57.33
2022-09-10T09:16:06.718Z,57.40
2022-09-10T09:18:41.188Z,57.66
2022-09-10T09:21:16.997Z,57.68
2022-09-10T09:24:09.700Z,58.05
2022-09-10T09:26:43.237Z,57.63
2022-09-10T09:29:15.116Z,57.92
2022-09-10T09:31:47.471Z,58.30
2022-09-10T09:34:20.222Z,58.69
2022-09-10T09:36:51.479Z,58.99
2022-09-10T09:39:25.570Z,58.56
2022-09-10T09:42:01.182Z,58.91
2022-09-10T09:44:32.193Z,59.37
2022-09-10T09:47:00.931Z,59.38
2022-09-10T09:49:30.334Z,59.22
2022-09-10T09:51:58.721Z,58.93
2022-09-10T09:57:21.156Z,58.93
2022-09-10T09:59:50.759Z,58.97
2022-09-10T10:02:21.803Z,59.21
2022-09-10T10:05:07.118Z,59.46
2022-09-10T10:07:37.173Z,59.27
2022-09-10T10:10:08.411Z,59.41
2022-09-10T10:12:42.385Z,59.40
2022-09-10T10:15:36.545Z,59.45
2022-09-10T10:18:26.115Z,59.00
2022-09-10T10:21:12.863Z,59.11
2022-09-10T10:23:41.719Z,58.79
2022-09-10T10:26:20.271Z,58.57
2022-09-10T10:28:51.770Z,58.75
2022-09-10T10:31:20.752Z,58.33
2022-09-10T10:33:54.404Z,58.08
2022-09-10T10:36:26.235Z,58.26
2022-09-10T10:38:58.730Z,58.28
2022-09-10T10:41:48.190Z,59.21
2022-09-10T10:44:50.792Z,58.61
2022-09-10T10:47:27.925Z,58.49
2022-09-10T10:50:04.471Z,58.42
2022-09-10T10:52:40.562Z,58.33
2022-09-10T10:55:15.457Z,58.49
2022-09-10T10:58:06.205Z,58.39
2022-09-10T11:00:42.430Z,58.25
2022-09-10T11:03:17.833Z,58.37
2022-09-10T11:05:49.364Z,58.32
2022-09-10T11:08:20.475Z,58.06
2022-09-10T11:10:51.684Z,57.83
2022-09-10T11:13:22.862Z,57.88
2022-09-10T11:15:59.332Z,57.92
2022-09-10T11:18:33.350Z,57.43
2022-09-10T11:21:06.291Z,57.77
2022-09-10T11:23:39.030Z,57.36
2022-09-10T11:26:10.569Z,57.30
2022-09-10T11:28:43.537Z,57.16
2022-09-10T11:31:18.471Z,56.85
2022-09-10T11:33:53.284Z,57.06
2022-09-10T11:36:26.205Z,56.94
2022-09-10T11:39:15.114Z,56.75
2022-09-10T11:41:43.929Z,56.88
2022-09-10T11:44:24.796Z,56.90
2022-09-10T11:47:02.831Z,57.20
2022-09-10T11:49:50.403Z,57.05
2022-09-10T11:52:19.435Z,57.29
2022-09-10T11:54:48.490Z,56.92
2022-09-10T11:57:27.035Z,56.95
2022-09-10T12:00:15.739Z,56.46
2022-09-10T12:03:20.674Z,56.92
2022-09-10T12:05:57.108Z,57.20
2022-09-10T12:08:35.197Z,57.35
2022-09-10T12:11:11.309Z,57.06
2022-09-10T12:13:40.264Z,57.01
2022-09-10T12:16:19.215Z,56.29
2022-09-10T12:18:50.216Z,55.99
2022-09-10T12:21:30.119Z,55.88
2022-09-10T12:23:58.654Z,55.71
2022-09-10T12:26:27.259Z,55.33
2022-09-10T12:29:04.555Z,55.31
2022-09-10T12:32:10.512Z,54.88
2022-09-10T12:34:39.745Z,54.96
2022-09-10T12:37:23.560Z,54.76
2022-09-10T12:40:25.548Z,54.59
2022-09-10T12:42:58.834Z,54.59
2022-09-10T12:45:57.496Z,54.39
2022-09-10T12:48:27.126Z,54.21
2022-09-10T12:51:00.599Z,54.00
2022-09-10T12:53:55.937Z,54.65
2022-09-10T12:56:50.906Z,54.95
2022-09-10T13:00:00.268Z,54.96
2022-09-10T13:02:31.805Z,54.91
2022-09-10T13:05:03.189Z,55.01
2022-09-10T13:07:40.320Z,55.06
2022-09-10T13:10:21.915Z,54.94
2022-09-10T13:12:53.063Z,55.37
2022-09-10T13:15:23.320Z,55.62
2022-09-10T13:18:23.954Z,55.70
2022-09-10T13:20:52.601Z,55.83
2022-09-10T13:23:26.626Z,55.87
2022-09-10T13:26:41.043Z,56.42
2022-09-10T13:29:28.121Z,57.11
2022-09-10T13:32:01.657Z,56.87
2022-09-10T13:35:00.404Z,56.72
2022-09-10T13:37:46.884Z,56.82
2022-09-10T13:40:29.179Z,56.83
2022-09-10T13:43:09.419Z,56.73
2022-09-10T13:45:41.701Z,56.68
2022-09-10T13:48:14.955Z,56.66
2022-09-10T13:50:50.280Z,57.24
2022-09-10T13:53:20.621Z,57.32
2022-09-10T13:55:56.025Z,57.10
2022-09-10T13:58:28.618Z,57.20
2022-09-10T14:01:03.286Z,56.56
2022-09-10T14:03:40.486Z,57.12
2022-09-10T14:06:09.948Z,57.19
2022-09-10T14:08:42.270Z,57.33
2022-09-10T14:11:17.046Z,57.51
2022-09-10T14:13:48.992Z,57.66
2022-09-10T14:16:26.172Z,57.76
2022-09-10T14:18:59.557Z,58.29
2022-09-10T14:21:28.154Z,58.31
2022-09-10T14:23:58.975Z,58.40
2022-09-10T14:26:29.029Z,58.07
2022-09-10T14:28:58.901Z,58.24
2022-09-10T14:31:34.862Z,58.21
2022-09-10T14:34:25.881Z,58.40
2022-09-10T14:36:54.414Z,58.45
2022-09-10T14:39:23.666Z,58.50
2022-09-10T14:42:10.297Z,58.31
2022-09-10T14:44:43.221Z,58.49
2022-09-10T14:47:28.387Z,58.56
2022-09-10T14:50:27.740Z,58.69
2022-09-10T14:52:56.434Z,58.46
2022-09-10T14:55:25.254Z,58.53
2022-09-10T14:57:54.185Z,58.25
2022-09-10T15:00:23.036Z,58.42
2022-09-10T15:02:56.020Z,58.42
2022-09-10T15:05:24.851Z,58.47
2022-09-10T15:07:53.345Z,58.23
2022-09-10T15:10:21.918Z,58.41
2022-09-10T15:12:52.890Z,58.41
2022-09-10T15:15:21.651Z,58.30
2022-09-10T15:17:50.319Z,58.50
2022-09-10T15:20:25.812Z,58.59
2022-09-10T15:22:56.182Z,58.55
2022-09-10T15:25:33.866Z,58.39
2022-09-10T15:28:04.048Z,58.75
2022-09-10T15:30:32.704Z,58.93
2022-09-10T15:33:03.841Z,58.77
2022-09-10T15:35:33.843Z,58.91
2022-09-10T15:38:02.441Z,59.19
2022-09-10T15:40:31.300Z,59.03
2022-09-10T15:42:59.686Z,58.85
2022-09-10T15:45:28.656Z,58.98
2022-09-10T15:47:57.168Z,58.80
2022-09-10T15:50:25.824Z,58.85
2022-09-10T15:52:56.171Z,58.81
2022-09-10T15:55:24.850Z,58.72
2022-09-10T15:57:53.346Z,58.75
2022-09-10T16:00:22.103Z,58.85
2022-09-10T16:02:51.872Z,58.83
2022-09-10T16:05:21.163Z,58.75
2022-09-10T16:07:49.928Z,59.08
2022-09-10T16:10:19.759Z,58.72
2022-09-10T16:12:48.498Z,58.74
2022-09-10T16:15:17.306Z,59.16
2022-09-10T16:17:45.847Z,58.72
2022-09-10T16:20:14.284Z,58.65
2022-09-10T16:22:42.662Z,58.37
2022-09-10T16:25:12.139Z,58.47
2022-09-10T16:27:43.432Z,58.55
2022-09-10T16:30:13.094Z,58.62
2022-09-10T16:32:41.590Z,58.67
2022-09-10T16:35:10.449Z,58.47
2022-09-10T16:37:39.001Z,58.75
2022-09-10T16:40:09.290Z,58.84
2022-09-10T16:42:37.773Z,58.25
2022-09-10T16:45:08.906Z,58.59
2022-09-10T16:47:38.188Z,58.59
2022-09-10T16:50:07.181Z,58.59
2022-09-10T16:52:35.740Z,58.73
2022-09-10T16:55:06.103Z,58.90
2022-09-10T16:57:34.550Z,58.69
2022-09-10T17:00:05.870Z,58.62
2022-09-10T17:02:35.612Z,58.43
2022-09-10T17:05:04.591Z,58.38
2022-09-10T17:07:33.263Z,58.50
2022-09-10T17:10:01.769Z,58.11
2022-09-10T17:12:30.226Z,58.06
2022-09-10T17:14:58.659Z,57.83
2022-09-10T17:17:27.273Z,57.85
2022-09-10T17:19:59.398Z,57.80
2022-09-10T17:22:28.042Z,57.79
2022-09-10T17:24:56.431Z,57.71
2022-09-10T17:27:25.703Z,57.74
2022-09-10T17:29:54.219Z,57.65
2022-09-10T17:32:22.701Z,57.61
2022-09-10T17:34:51.522Z,57.78
2022-09-10T17:37:21.308Z,57.61
2022-09-10T17:39:51.527Z,57.47
2022-09-10T17:42:20.028Z,57.50
2022-09-10T17:44:49.384Z,57.45
2022-09-10T17:47:17.855Z,57.52
2022-09-10T17:49:46.765Z,57.79
2022-09-10T17:52:15.715Z,57.76
2022-09-10T17:54:45.776Z,57.83
2022-09-10T17:57:17.286Z,57.42
2022-09-10T17:59:45.835Z,57.57
2022-09-10T18:02:15.493Z,57.70
2022-09-10T18:04:44.140Z,57.63
2022-09-10T18:07:13.034Z,57.48
2022-09-10T18:09:41.609Z,57.91
2022-09-10T18:12:11.504Z,57.90
2022-09-10T18:14:40.112Z,57.78
2022-09-10T18:17:08.836Z,57.84
2022-09-10T18:19:37.392Z,57.88
2022-09-10T18:22:06.462Z,57.81
2022-09-10T18:24:34.969Z,57.77
2022-09-10T18:27:05.280Z,57.80
2022-09-10T18:29:35.475Z,57.72
2022-09-10T18:32:04.507Z,57.97
2022-09-10T18:34:32.998Z,57.94
2022-09-10T18:37:03.301Z,57.95
2022-09-10T18:39:33.610Z,57.94
2022-09-10T18:42:02.793Z,57.86
2022-09-10T18:44:34.549Z,57.81
2022-09-10T18:47:17.792Z,57.85
2022-09-10T18:49:52.299Z,57.84
2022-09-10T18:52:22.588Z,57.84
2022-09-10T18:54:52.060Z,57.82
2022-09-10T18:57:20.612Z,58.07
2022-09-10T18:59:49.169Z,57.98
2022-09-10T19:02:21.131Z,57.99
2022-09-10T19:05:10.311Z,57.84
2022-09-10T19:07:38.368Z,57.97
2022-09-10T19:10:08.462Z,57.74
2022-09-10T19:12:36.879Z,58.17
2022-09-10T19:15:05.856Z,57.84
2022-09-10T19:17:35.642Z,57.86
2022-09-10T19:20:04.483Z,57.77
2022-09-10T19:22:33.827Z,57.79
2022-09-10T19:25:03.342Z,57.88
2022-09-10T19:27:35.047Z,57.66
2022-09-10T19:30:03.571Z,57.63
2022-09-10T19:32:32.054Z,57.84
2022-09-10T19:35:02.057Z,57.59
2022-09-10T19:37:31.410Z,57.99
2022-09-10T19:40:00.034Z,57.48
2022-09-10T19:42:28.865Z,57.63
2022-09-10T19:44:57.293Z,57.66
2022-09-10T19:47:25.817Z,57.51
2022-09-10T19:49:54.227Z,57.63
2022-09-10T19:52:25.638Z,57.43
2022-09-10T19:54:54.163Z,57.34
2022-09-10T19:57:22.737Z,57.46
2022-09-10T19:59:51.260Z,57.60
2022-09-10T20:02:19.892Z,57.65
2022-09-10T20:04:48.578Z,57.52
2022-09-10T20:07:17.219Z,57.35
2022-09-10T20:09:47.218Z,57.39
2022-09-10T20:12:16.349Z,57.25
2022-09-10T20:14:44.902Z,57.45
2022-09-10T20:17:13.496Z,57.32
2022-09-10T20:19:41.971Z,57.37
2022-09-10T20:22:10.495Z,57.30
2022-09-10T20:24:39.342Z,57.36
2022-09-10T20:27:09.191Z,57.11
2022-09-10T20:29:37.638Z,57.30
2022-09-10T20:32:06.992Z,57.40
2022-09-10T20:34:36.749Z,57.39
2022-09-10T20:37:05.359Z,57.45
2022-09-10T20:39:34.730Z,57.41
2022-09-10T20:42:04.628Z,57.67
2022-09-10T20:44:34.460Z,57.82
2022-09-10T20:47:03.471Z,57.38
2022-09-10T20:49:31.994Z,57.68
2022-09-10T20:52:00.465Z,57.51
2022-09-10T20:54:28.944Z,57.22
2022-09-10T20:56:57.588Z,57.46
2022-09-10T20:59:27.826Z,57.39
2022-09-10T21:01:57.950Z,57.49
2022-09-10T21:04:26.561Z,57.71
2022-09-10T21:06:55.377Z,57.46
2022-09-10T21:09:23.861Z,57.42
2022-09-10T21:11:52.369Z,57.29
2022-09-10T21:14:21.008Z,57.56
2022-09-10T21:16:49.470Z,57.59
2022-09-10T21:19:19.318Z,57.47
2022-09-10T21:21:49.664Z,57.27
2022-09-10T21:24:19.578Z,57.36
2022-09-10T21:26:48.028Z,57.29
2022-09-10T21:29:18.919Z,57.54
2022-09-10T21:31:47.720Z,57.45
2022-09-10T21:34:17.367Z,57.47
2022-09-10T21:36:47.189Z,57.43
2022-09-10T21:39:16.684Z,57.26
2022-09-10T21:41:46.949Z,57.23
2022-09-10T21:44:17.358Z,57.32
2022-09-10T21:46:46.062Z,57.44
2022-09-10T21:49:14.782Z,57.41
2022-09-10T21:51:43.705Z,57.71
2022-09-10T21:54:15.376Z,57.34
2022-09-10T21:56:43.969Z,57.37
2022-09-10T21:59:13.186Z,57.14
2022-09-10T22:01:43.714Z,57.48
2022-09-10T22:04:13.350Z,57.21
2022-09-10T22:06:41.982Z,57.02
2022-09-10T22:09:12.645Z,57.19
2022-09-10T22:11:45.779Z,57.26
2022-09-10T22:14:16.107Z,57.11
2022-09-10T22:16:45.441Z,57.42
2022-09-10T22:19:15.448Z,57.08
2022-09-10T22:21:43.921Z,57.17
2022-09-10T22:24:13.854Z,57.17
2022-09-10T22:26:44.724Z,57.22
2022-09-10T22:29:15.776Z,57.22
2022-09-10T22:31:44.261Z,57.12
2022-09-10T22:34:14.379Z,57.24
2022-09-10T22:36:44.611Z,57.54
2022-09-10T22:39:15.148Z,57.37
2022-09-10T22:41:45.699Z,57.21
2022-09-10T22:44:14.597Z,57.15
2022-09-10T22:46:43.152Z,57.07
2022-09-10T22:49:11.577Z,57.23
2022-09-10T22:51:41.867Z,57.08
2022-09-10T22:54:11.170Z,57.46
2022-09-10T22:56:39.999Z,57.35
2022-09-10T22:59:13.653Z,57.33
2022-09-10T23:01:43.302Z,57.13
2022-09-10T23:04:12.547Z,57.46
2022-09-10T23:06:41.226Z,57.37
2022-09-10T23:09:12.168Z,57.40
2022-09-10T23:11:41.097Z,57.15
2022-09-10T23:14:13.181Z,57.15
2022-09-10T23:16:43.981Z,57.29
2022-09-10T23:19:14.158Z,57.21
2022-09-10T23:21:44.614Z,57.28
2022-09-10T23:24:15.288Z,57.33
2022-09-10T23:26:44.585Z,57.24
2022-09-10T23:29:17.248Z,57.33
2022-09-10T23:31:47.820Z,57.41
2022-09-10T23:34:17.972Z,57.63
2022-09-10T23:36:48.055Z,57.55
2022-09-10T23:39:19.761Z,57.43
2022-09-10T23:41:48.266Z,57.42
2022-09-10T23:44:18.506Z,57.43
2022-09-10T23:46:47.120Z,57.24
2022-09-10T23:49:15.937Z,57.42
2022-09-10T23:51:44.401Z,57.21
2022-09-10T23:54:13.423Z,57.16
2022-09-10T23:56:42.738Z,57.14
2022-09-10T23:59:11.506Z,57.38
